sensor_id;sensor_type;location;lat;lon;timestamp;P1;durP1;ratioP1;P2;durP2;ratioP2
35606;SDS011;21729;58.392;15.656;2022-10-16T00:01:15;4.55;;;3.80;;
35606;SDS011;21729;58.392;15.656;2022-10-16T00:03:43;5.85;;;4.18;;
35606;SDS011;21729;58.392;15.656;2022-10-16T00:06:12;4.20;;;3.40;;
35606;SDS011;21729;58.392;15.656;2022-10-16T00:08:40;5.20;;;3.80;;
35606;SDS011;21729;58.392;15.656;2022-10-16T00:11:09;4.00;;;3.60;;
35606;SDS011;21729;58.392;15.656;2022-10-16T00:13:40;4.25;;;3.70;;
35606;SDS011;21729;58.392;15.656;2022-10-16T00:16:08;5.60;;;3.67;;
35606;SDS011;21729;58.392;15.656;2022-10-16T00:18:37;4.40;;;3.90;;
35606;SDS011;21729;58.392;15.656;2022-10-16T00:21:05;4.28;;;3.60;;
35606;SDS011;21729;58.392;15.656;2022-10-16T00:23:34;3.78;;;3.40;;
35606;SDS011;21729;58.392;15.656;2022-10-16T00:26:02;3.60;;;3.30;;
35606;SDS011;21729;58.392;15.656;2022-10-16T00:28:32;3.60;;;3.30;;
35606;SDS011;21729;58.392;15.656;2022-10-16T00:31:03;4.05;;;3.65;;
35606;SDS011;21729;58.392;15.656;2022-10-16T00:33:31;4.18;;;3.63;;
35606;SDS011;21729;58.392;15.656;2022-10-16T00:35:58;3.58;;;3.28;;
35606;SDS011;21729;58.392;15.656;2022-10-16T00:38:25;4.43;;;3.00;;
35606;SDS011;21729;58.392;15.656;2022-10-16T00:40:52;4.35;;;3.10;;
35606;SDS011;21729;58.392;15.656;2022-10-16T00:43:33;4.00;;;3.20;;
35606;SDS011;21729;58.392;15.656;2022-10-16T00:46:05;4.22;;;3.25;;
35606;SDS011;21729;58.392;15.656;2022-10-16T00:48:37;3.45;;;2.80;;
35606;SDS011;21729;58.392;15.656;2022-10-16T00:51:04;3.75;;;3.08;;
35606;SDS011;21729;58.392;15.656;2022-10-16T00:53:33;3.92;;;3.30;;
35606;SDS011;21729;58.392;15.656;2022-10-16T00:56:02;3.33;;;3.03;;
35606;SDS011;21729;58.392;15.656;2022-10-16T00:58:29;4.63;;;3.45;;
35606;SDS011;21729;58.392;15.656;2022-10-16T01:00:56;3.53;;;3.22;;
35606;SDS011;21729;58.392;15.656;2022-10-16T01:03:26;4.15;;;3.20;;
35606;SDS011;21729;58.392;15.656;2022-10-16T01:05:58;3.60;;;3.30;;
35606;SDS011;21729;58.392;15.656;2022-10-16T01:08:37;3.65;;;3.30;;
35606;SDS011;21729;58.392;15.656;2022-10-16T01:11:10;4.22;;;3.20;;
35606;SDS011;21729;58.392;15.656;2022-10-16T01:13:46;3.50;;;3.03;;
35606;SDS011;21729;58.392;15.656;2022-10-16T01:16:21;3.30;;;3.00;;
35606;SDS011;21729;58.392;15.656;2022-10-16T01:19:01;4.47;;;2.80;;
35606;SDS011;21729;58.392;15.656;2022-10-16T01:21:35;4.30;;;2.80;;
35606;SDS011;21729;58.392;15.656;2022-10-16T01:24:07;5.47;;;3.05;;
35606;SDS011;21729;58.392;15.656;2022-10-16T01:26:44;3.42;;;2.80;;
35606;SDS011;21729;58.392;15.656;2022-10-16T01:29:33;5.03;;;2.90;;
35606;SDS011;21729;58.392;15.656;2022-10-16T01:32:05;4.85;;;2.88;;
35606;SDS011;21729;58.392;15.656;2022-10-16T01:34:37;3.78;;;2.92;;
35606;SDS011;21729;58.392;15.656;2022-10-16T01:37:10;4.03;;;2.75;;
35606;SDS011;21729;58.392;15.656;2022-10-16T01:39:42;4.20;;;3.05;;
35606;SDS011;21729;58.392;15.656;2022-10-16T01:42:16;3.63;;;2.97;;
35606;SDS011;21729;58.392;15.656;2022-10-16T01:44:47;4.47;;;3.43;;
35606;SDS011;21729;58.392;15.656;2022-10-16T01:47:15;3.53;;;2.83;;
35606;SDS011;21729;58.392;15.656;2022-10-16T01:49:45;4.63;;;3.40;;
35606;SDS011;21729;58.392;15.656;2022-10-16T01:52:13;4.85;;;3.33;;
35606;SDS011;21729;58.392;15.656;2022-10-16T01:54:44;4.82;;;3.10;;
35606;SDS011;21729;58.392;15.656;2022-10-16T01:57:16;5.28;;;3.10;;
35606;SDS011;21729;58.392;15.656;2022-10-16T01:59:45;3.53;;;3.10;;
35606;SDS011;21729;58.392;15.656;2022-10-16T02:02:13;4.15;;;3.05;;
35606;SDS011;21729;58.392;15.656;2022-10-16T02:04:44;4.85;;;3.45;;
35606;SDS011;21729;58.392;15.656;2022-10-16T02:07:13;3.80;;;3.30;;
35606;SDS011;21729;58.392;15.656;2022-10-16T02:09:41;3.60;;;3.20;;
35606;SDS011;21729;58.392;15.656;2022-10-16T02:12:09;5.18;;;3.20;;
35606;SDS011;21729;58.392;15.656;2022-10-16T02:14:42;4.97;;;3.47;;
35606;SDS011;21729;58.392;15.656;2022-10-16T02:17:13;4.82;;;3.25;;
35606;SDS011;21729;58.392;15.656;2022-10-16T02:19:42;4.65;;;3.50;;
35606;SDS011;21729;58.392;15.656;2022-10-16T02:22:12;4.25;;;3.20;;
35606;SDS011;21729;58.392;15.656;2022-10-16T02:24:47;4.30;;;3.55;;
35606;SDS011;21729;58.392;15.656;2022-10-16T02:27:19;3.55;;;3.25;;
35606;SDS011;21729;58.392;15.656;2022-10-16T02:29:53;4.65;;;3.35;;
35606;SDS011;21729;58.392;15.656;2022-10-16T02:32:27;6.28;;;3.50;;
35606;SDS011;21729;58.392;15.656;2022-10-16T02:34:57;4.93;;;3.80;;
35606;SDS011;21729;58.392;15.656;2022-10-16T02:37:26;4.53;;;3.60;;
35606;SDS011;21729;58.392;15.656;2022-10-16T02:39:55;4.75;;;3.72;;
35606;SDS011;21729;58.392;15.656;2022-10-16T02:42:27;5.30;;;3.90;;
35606;SDS011;21729;58.392;15.656;2022-10-16T02:44:56;4.65;;;3.70;;
35606;SDS011;21729;58.392;15.656;2022-10-16T02:47:23;5.97;;;4.07;;
35606;SDS011;21729;58.392;15.656;2022-10-16T02:49:50;4.30;;;3.90;;
35606;SDS011;21729;58.392;15.656;2022-10-16T02:52:18;5.57;;;4.10;;
35606;SDS011;21729;58.392;15.656;2022-10-16T02:54:45;5.60;;;4.35;;
35606;SDS011;21729;58.392;15.656;2022-10-16T02:57:12;4.95;;;4.20;;
35606;SDS011;21729;58.392;15.656;2022-10-16T02:59:39;5.47;;;4.15;;
35606;SDS011;21729;58.392;15.656;2022-10-16T03:02:07;6.57;;;4.65;;
35606;SDS011;21729;58.392;15.656;2022-10-16T03:04:35;5.93;;;4.63;;
35606;SDS011;21729;58.392;15.656;2022-10-16T03:07:02;4.67;;;4.17;;
35606;SDS011;21729;58.392;15.656;2022-10-16T03:09:29;6.05;;;4.53;;
35606;SDS011;21729;58.392;15.656;2022-10-16T03:11:56;5.07;;;4.32;;
35606;SDS011;21729;58.392;15.656;2022-10-16T03:14:23;8.43;;;4.88;;
35606;SDS011;21729;58.392;15.656;2022-10-16T03:16:50;5.65;;;4.45;;
35606;SDS011;21729;58.392;15.656;2022-10-16T03:19:19;7.50;;;4.68;;
35606;SDS011;21729;58.392;15.656;2022-10-16T03:21:46;5.85;;;4.50;;
35606;SDS011;21729;58.392;15.656;2022-10-16T03:24:13;5.60;;;4.57;;
35606;SDS011;21729;58.392;15.656;2022-10-16T03:26:40;7.82;;;4.72;;
35606;SDS011;21729;58.392;15.656;2022-10-16T03:29:07;5.68;;;4.75;;
35606;SDS011;21729;58.392;15.656;2022-10-16T03:31:34;6.10;;;4.55;;
35606;SDS011;21729;58.392;15.656;2022-10-16T03:34:01;6.57;;;4.90;;
35606;SDS011;21729;58.392;15.656;2022-10-16T03:36:30;5.45;;;4.63;;
35606;SDS011;21729;58.392;15.656;2022-10-16T03:38:57;5.75;;;4.57;;
35606;SDS011;21729;58.392;15.656;2022-10-16T03:41:24;6.07;;;4.40;;
35606;SDS011;21729;58.392;15.656;2022-10-16T03:43:51;6.55;;;4.30;;
35606;SDS011;21729;58.392;15.656;2022-10-16T03:46:18;5.23;;;4.20;;
35606;SDS011;21729;58.392;15.656;2022-10-16T03:48:45;5.50;;;4.90;;
35606;SDS011;21729;58.392;15.656;2022-10-16T03:51:12;7.28;;;4.38;;
35606;SDS011;21729;58.392;15.656;2022-10-16T03:53:40;6.20;;;4.80;;
35606;SDS011;21729;58.392;15.656;2022-10-16T03:56:07;5.10;;;4.60;;
35606;SDS011;21729;58.392;15.656;2022-10-16T03:58:34;6.78;;;4.88;;
35606;SDS011;21729;58.392;15.656;2022-10-16T04:01:01;5.18;;;4.35;;
35606;SDS011;21729;58.392;15.656;2022-10-16T04:03:29;5.63;;;4.40;;
35606;SDS011;21729;58.392;15.656;2022-10-16T04:05:56;5.93;;;4.80;;
35606;SDS011;21729;58.392;15.656;2022-10-16T04:08:23;5.03;;;4.32;;
35606;SDS011;21729;58.392;15.656;2022-10-16T04:10:54;4.93;;;4.53;;
35606;SDS011;21729;58.392;15.656;2022-10-16T04:13:21;5.63;;;4.80;;
35606;SDS011;21729;58.392;15.656;2022-10-16T04:15:48;5.00;;;4.50;;
35606;SDS011;21729;58.392;15.656;2022-10-16T04:18:15;5.18;;;4.40;;
35606;SDS011;21729;58.392;15.656;2022-10-16T04:20:42;6.30;;;4.63;;
35606;SDS011;21729;58.392;15.656;2022-10-16T04:23:09;6.82;;;5.00;;
35606;SDS011;21729;58.392;15.656;2022-10-16T04:25:36;6.20;;;4.80;;
35606;SDS011;21729;58.392;15.656;2022-10-16T04:28:04;6.60;;;4.82;;
35606;SDS011;21729;58.392;15.656;2022-10-16T04:30:32;8.90;;;4.93;;
35606;SDS011;21729;58.392;15.656;2022-10-16T04:32:59;5.90;;;4.63;;
35606;SDS011;21729;58.392;15.656;2022-10-16T04:35:26;5.38;;;4.80;;
35606;SDS011;21729;58.392;15.656;2022-10-16T04:37:53;7.32;;;4.97;;
35606;SDS011;21729;58.392;15.656;2022-10-16T04:40:20;7.47;;;4.70;;
35606;SDS011;21729;58.392;15.656;2022-10-16T04:42:47;6.65;;;5.07;;
35606;SDS011;21729;58.392;15.656;2022-10-16T04:45:16;7.68;;;5.53;;
35606;SDS011;21729;58.392;15.656;2022-10-16T04:47:43;7.00;;;5.40;;
35606;SDS011;21729;58.392;15.656;2022-10-16T04:50:10;8.00;;;5.60;;
35606;SDS011;21729;58.392;15.656;2022-10-16T04:52:37;6.13;;;5.40;;
35606;SDS011;21729;58.392;15.656;2022-10-16T04:55:05;5.63;;;5.03;;
35606;SDS011;21729;58.392;15.656;2022-10-16T04:57:32;7.63;;;5.32;;
35606;SDS011;21729;58.392;15.656;2022-10-16T04:59:59;6.75;;;4.97;;
35606;SDS011;21729;58.392;15.656;2022-10-16T05:02:29;7.43;;;4.90;;
35606;SDS011;21729;58.392;15.656;2022-10-16T05:04:56;7.90;;;5.07;;
35606;SDS011;21729;58.392;15.656;2022-10-16T05:07:23;6.45;;;5.05;;
35606;SDS011;21729;58.392;15.656;2022-10-16T05:09:50;5.78;;;4.85;;
35606;SDS011;21729;58.392;15.656;2022-10-16T05:12:18;6.35;;;4.90;;
35606;SDS011;21729;58.392;15.656;2022-10-16T05:14:45;7.07;;;5.00;;
35606;SDS011;21729;58.392;15.656;2022-10-16T05:17:12;5.43;;;4.90;;
35606;SDS011;21729;58.392;15.656;2022-10-16T05:19:41;6.35;;;5.30;;
35606;SDS011;21729;58.392;15.656;2022-10-16T05:22:08;6.55;;;4.95;;
35606;SDS011;21729;58.392;15.656;2022-10-16T05:24:35;6.65;;;5.45;;
35606;SDS011;21729;58.392;15.656;2022-10-16T05:27:02;7.38;;;5.22;;
35606;SDS011;21729;58.392;15.656;2022-10-16T05:29:29;7.03;;;5.35;;
35606;SDS011;21729;58.392;15.656;2022-10-16T05:31:57;7.13;;;5.50;;
35606;SDS011;21729;58.392;15.656;2022-10-16T05:34:24;6.65;;;5.18;;
35606;SDS011;21729;58.392;15.656;2022-10-16T05:36:52;7.60;;;5.10;;
35606;SDS011;21729;58.392;15.656;2022-10-16T05:39:19;6.45;;;5.05;;
35606;SDS011;21729;58.392;15.656;2022-10-16T05:41:46;6.68;;;5.07;;
35606;SDS011;21729;58.392;15.656;2022-10-16T05:44:17;8.10;;;5.22;;
35606;SDS011;21729;58.392;15.656;2022-10-16T05:46:45;8.23;;;4.97;;
35606;SDS011;21729;58.392;15.656;2022-10-16T05:49:12;6.10;;;4.85;;
35606;SDS011;21729;58.392;15.656;2022-10-16T05:51:39;6.05;;;5.15;;
35606;SDS011;21729;58.392;15.656;2022-10-16T05:54:08;7.13;;;5.05;;
35606;SDS011;21729;58.392;15.656;2022-10-16T05:56:37;5.95;;;5.03;;
35606;SDS011;21729;58.392;15.656;2022-10-16T05:59:04;6.03;;;5.30;;
35606;SDS011;21729;58.392;15.656;2022-10-16T06:01:31;7.00;;;5.10;;
35606;SDS011;21729;58.392;15.656;2022-10-16T06:03:58;6.07;;;5.43;;
35606;SDS011;21729;58.392;15.656;2022-10-16T06:06:26;5.63;;;5.03;;
35606;SDS011;21729;58.392;15.656;2022-10-16T06:08:55;5.20;;;4.70;;
35606;SDS011;21729;58.392;15.656;2022-10-16T06:11:27;6.35;;;4.80;;
35606;SDS011;21729;58.392;15.656;2022-10-16T06:13:56;5.82;;;4.90;;
35606;SDS011;21729;58.392;15.656;2022-10-16T06:16:26;5.25;;;4.53;;
35606;SDS011;21729;58.392;15.656;2022-10-16T06:18:54;5.03;;;4.60;;
35606;SDS011;21729;58.392;15.656;2022-10-16T06:21:22;5.90;;;4.50;;
35606;SDS011;21729;58.392;15.656;2022-10-16T06:23:51;5.05;;;4.30;;
35606;SDS011;21729;58.392;15.656;2022-10-16T06:26:18;4.65;;;3.95;;
35606;SDS011;21729;58.392;15.656;2022-10-16T06:28:49;4.65;;;4.03;;
35606;SDS011;21729;58.392;15.656;2022-10-16T06:31:16;5.10;;;4.37;;
35606;SDS011;21729;58.392;15.656;2022-10-16T06:33:43;5.65;;;4.25;;
35606;SDS011;21729;58.392;15.656;2022-10-16T06:36:12;5.35;;;3.88;;
35606;SDS011;21729;58.392;15.656;2022-10-16T06:38:40;4.28;;;3.88;;
35606;SDS011;21729;58.392;15.656;2022-10-16T06:41:09;4.07;;;3.60;;
35606;SDS011;21729;58.392;15.656;2022-10-16T06:43:38;4.70;;;3.97;;
35606;SDS011;21729;58.392;15.656;2022-10-16T06:46:07;4.32;;;3.80;;
35606;SDS011;21729;58.392;15.656;2022-10-16T06:48:36;3.50;;;3.20;;
35606;SDS011;21729;58.392;15.656;2022-10-16T06:51:04;3.60;;;3.03;;
35606;SDS011;21729;58.392;15.656;2022-10-16T06:53:33;5.70;;;3.28;;
35606;SDS011;21729;58.392;15.656;2022-10-16T06:56:06;3.60;;;2.75;;
35606;SDS011;21729;58.392;15.656;2022-10-16T06:58:34;5.63;;;3.10;;
35606;SDS011;21729;58.392;15.656;2022-10-16T07:01:04;3.97;;;3.30;;
35606;SDS011;21729;58.392;15.656;2022-10-16T07:03:35;3.40;;;2.70;;
35606;SDS011;21729;58.392;15.656;2022-10-16T07:06:03;4.93;;;3.00;;
35606;SDS011;21729;58.392;15.656;2022-10-16T07:08:31;5.68;;;3.17;;
35606;SDS011;21729;58.392;15.656;2022-10-16T07:10:59;5.50;;;2.93;;
35606;SDS011;21729;58.392;15.656;2022-10-16T07:13:26;3.42;;;3.13;;
35606;SDS011;21729;58.392;15.656;2022-10-16T07:15:53;4.05;;;3.15;;
35606;SDS011;21729;58.392;15.656;2022-10-16T07:18:22;5.15;;;2.80;;
35606;SDS011;21729;58.392;15.656;2022-10-16T07:20:51;4.78;;;2.85;;
35606;SDS011;21729;58.392;15.656;2022-10-16T07:23:19;5.05;;;2.83;;
35606;SDS011;21729;58.392;15.656;2022-10-16T07:25:50;4.07;;;3.00;;
35606;SDS011;21729;58.392;15.656;2022-10-16T07:28:20;4.45;;;2.92;;
35606;SDS011;21729;58.392;15.656;2022-10-16T07:30:48;4.50;;;2.93;;
35606;SDS011;21729;58.392;15.656;2022-10-16T07:33:15;4.15;;;2.60;;
35606;SDS011;21729;58.392;15.656;2022-10-16T07:35:48;3.70;;;3.03;;
35606;SDS011;21729;58.392;15.656;2022-10-16T07:38:16;4.13;;;2.50;;
35606;SDS011;21729;58.392;15.656;2022-10-16T07:40:43;5.15;;;2.67;;
35606;SDS011;21729;58.392;15.656;2022-10-16T07:43:10;3.67;;;2.50;;
35606;SDS011;21729;58.392;15.656;2022-10-16T07:45:45;3.05;;;2.28;;
35606;SDS011;21729;58.392;15.656;2022-10-16T07:48:16;5.00;;;2.40;;
35606;SDS011;21729;58.392;15.656;2022-10-16T07:50:44;2.97;;;2.38;;
35606;SDS011;21729;58.392;15.656;2022-10-16T07:53:12;3.92;;;2.40;;
35606;SDS011;21729;58.392;15.656;2022-10-16T07:55:41;4.60;;;2.40;;
35606;SDS011;21729;58.392;15.656;2022-10-16T07:58:09;3.20;;;2.20;;
35606;SDS011;21729;58.392;15.656;2022-10-16T08:00:36;2.95;;;2.20;;
35606;SDS011;21729;58.392;15.656;2022-10-16T08:03:03;3.67;;;2.50;;
35606;SDS011;21729;58.392;15.656;2022-10-16T08:05:31;4.60;;;2.50;;
35606;SDS011;21729;58.392;15.656;2022-10-16T08:07:59;3.55;;;2.17;;
35606;SDS011;21729;58.392;15.656;2022-10-16T08:10:28;2.67;;;2.03;;
35606;SDS011;21729;58.392;15.656;2022-10-16T08:12:56;3.63;;;2.08;;
35606;SDS011;21729;58.392;15.656;2022-10-16T08:15:23;3.38;;;2.38;;
35606;SDS011;21729;58.392;15.656;2022-10-16T08:17:54;4.00;;;2.10;;
35606;SDS011;21729;58.392;15.656;2022-10-16T08:20:22;4.60;;;2.05;;
35606;SDS011;21729;58.392;15.656;2022-10-16T08:22:49;2.93;;;2.30;;
35606;SDS011;21729;58.392;15.656;2022-10-16T08:25:16;2.88;;;2.22;;
35606;SDS011;21729;58.392;15.656;2022-10-16T08:27:45;3.00;;;2.40;;
35606;SDS011;21729;58.392;15.656;2022-10-16T08:30:12;4.00;;;2.20;;
35606;SDS011;21729;58.392;15.656;2022-10-16T08:32:39;5.35;;;2.65;;
35606;SDS011;21729;58.392;15.656;2022-10-16T08:35:08;3.95;;;2.38;;
35606;SDS011;21729;58.392;15.656;2022-10-16T08:37:35;3.97;;;2.25;;
35606;SDS011;21729;58.392;15.656;2022-10-16T08:40:03;2.97;;;2.20;;
35606;SDS011;21729;58.392;15.656;2022-10-16T08:42:35;2.92;;;2.20;;
35606;SDS011;21729;58.392;15.656;2022-10-16T08:45:18;3.30;;;2.38;;
35606;SDS011;21729;58.392;15.656;2022-10-16T08:48:04;3.30;;;2.30;;
35606;SDS011;21729;58.392;15.656;2022-10-16T08:50:41;5.10;;;2.42;;
35606;SDS011;21729;58.392;15.656;2022-10-16T08:53:10;3.58;;;2.17;;
35606;SDS011;21729;58.392;15.656;2022-10-16T08:55:42;5.35;;;2.58;;
35606;SDS011;21729;58.392;15.656;2022-10-16T08:58:12;4.15;;;2.30;;
35606;SDS011;21729;58.392;15.656;2022-10-16T09:00:43;4.30;;;2.47;;
35606;SDS011;21729;58.392;15.656;2022-10-16T09:03:15;5.07;;;2.57;;
35606;SDS011;21729;58.392;15.656;2022-10-16T09:05:52;5.75;;;2.47;;
35606;SDS011;21729;58.392;15.656;2022-10-16T09:08:35;2.90;;;2.17;;
35606;SDS011;21729;58.392;15.656;2022-10-16T09:11:09;3.47;;;2.20;;
35606;SDS011;21729;58.392;15.656;2022-10-16T09:13:43;5.17;;;2.33;;
35606;SDS011;21729;58.392;15.656;2022-10-16T09:16:19;3.03;;;2.10;;
35606;SDS011;21729;58.392;15.656;2022-10-16T09:18:51;4.43;;;2.20;;
35606;SDS011;21729;58.392;15.656;2022-10-16T09:21:25;4.53;;;2.00;;
35606;SDS011;21729;58.392;15.656;2022-10-16T09:23:56;5.97;;;1.98;;
35606;SDS011;21729;58.392;15.656;2022-10-16T09:26:24;3.25;;;1.90;;
35606;SDS011;21729;58.392;15.656;2022-10-16T09:28:51;3.42;;;1.67;;
35606;SDS011;21729;58.392;15.656;2022-10-16T09:31:21;4.07;;;1.80;;
35606;SDS011;21729;58.392;15.656;2022-10-16T09:33:50;3.80;;;1.55;;
35606;SDS011;21729;58.392;15.656;2022-10-16T09:36:21;3.45;;;1.70;;
35606;SDS011;21729;58.392;15.656;2022-10-16T09:39:01;1.83;;;1.50;;
35606;SDS011;21729;58.392;15.656;2022-10-16T09:41:30;6.32;;;1.70;;
35606;SDS011;21729;58.392;15.656;2022-10-16T09:44:00;3.13;;;1.80;;
35606;SDS011;21729;58.392;15.656;2022-10-16T09:46:32;3.70;;;1.52;;
35606;SDS011;21729;58.392;15.656;2022-10-16T09:49:01;3.05;;;1.60;;
35606;SDS011;21729;58.392;15.656;2022-10-16T09:51:31;3.03;;;1.48;;
35606;SDS011;21729;58.392;15.656;2022-10-16T09:54:02;3.13;;;1.60;;
35606;SDS011;21729;58.392;15.656;2022-10-16T09:56:40;3.15;;;1.58;;
35606;SDS011;21729;58.392;15.656;2022-10-16T09:59:10;4.00;;;1.60;;
35606;SDS011;21729;58.392;15.656;2022-10-16T10:01:40;3.72;;;1.63;;
35606;SDS011;21729;58.392;15.656;2022-10-16T10:04:10;2.80;;;1.58;;
35606;SDS011;21729;58.392;15.656;2022-10-16T10:06:41;2.30;;;1.70;;
35606;SDS011;21729;58.392;15.656;2022-10-16T10:09:15;3.37;;;1.70;;
35606;SDS011;21729;58.392;15.656;2022-10-16T10:11:47;3.30;;;1.60;;
35606;SDS011;21729;58.392;15.656;2022-10-16T10:14:23;3.83;;;1.77;;
35606;SDS011;21729;58.392;15.656;2022-10-16T10:17:07;4.03;;;1.80;;
35606;SDS011;21729;58.392;15.656;2022-10-16T10:19:41;4.32;;;1.63;;
35606;SDS011;21729;58.392;15.656;2022-10-16T10:22:19;3.60;;;1.67;;
35606;SDS011;21729;58.392;15.656;2022-10-16T10:25:00;3.85;;;1.70;;
35606;SDS011;21729;58.392;15.656;2022-10-16T10:27:42;3.13;;;1.40;;
35606;SDS011;21729;58.392;15.656;2022-10-16T10:30:18;4.43;;;1.77;;
35606;SDS011;21729;58.392;15.656;2022-10-16T10:32:53;2.60;;;1.50;;
35606;SDS011;21729;58.392;15.656;2022-10-16T10:35:29;2.47;;;1.50;;
35606;SDS011;21729;58.392;15.656;2022-10-16T10:38:06;3.30;;;1.60;;
35606;SDS011;21729;58.392;15.656;2022-10-16T10:40:45;5.25;;;1.50;;
35606;SDS011;21729;58.392;15.656;2022-10-16T10:43:20;3.38;;;1.42;;
35606;SDS011;21729;58.392;15.656;2022-10-16T10:45:58;2.50;;;1.70;;
35606;SDS011;21729;58.392;15.656;2022-10-16T10:51:22;4.40;;;1.67;;
35606;SDS011;21729;58.392;15.656;2022-10-16T10:53:56;3.72;;;1.40;;
35606;SDS011;21729;58.392;15.656;2022-10-16T10:56:40;4.53;;;1.55;;
35606;SDS011;21729;58.392;15.656;2022-10-16T10:59:19;3.17;;;1.50;;
35606;SDS011;21729;58.392;15.656;2022-10-16T11:02:01;3.58;;;1.73;;
35606;SDS011;21729;58.392;15.656;2022-10-16T11:04:45;4.82;;;1.63;;
35606;SDS011;21729;58.392;15.656;2022-10-16T11:07:25;5.32;;;1.65;;
35606;SDS011;21729;58.392;15.656;2022-10-16T11:09:56;3.45;;;1.60;;
35606;SDS011;21729;58.392;15.656;2022-10-16T11:12:26;2.70;;;1.30;;
35606;SDS011;21729;58.392;15.656;2022-10-16T11:14:58;3.90;;;1.67;;
35606;SDS011;21729;58.392;15.656;2022-10-16T11:17:32;5.55;;;1.60;;
35606;SDS011;21729;58.392;15.656;2022-10-16T11:20:12;4.07;;;1.47;;
35606;SDS011;21729;58.392;15.656;2022-10-16T11:22:44;4.13;;;1.60;;
35606;SDS011;21729;58.392;15.656;2022-10-16T11:25:16;4.18;;;1.70;;
35606;SDS011;21729;58.392;15.656;2022-10-16T11:27:49;6.15;;;1.50;;
35606;SDS011;21729;58.392;15.656;2022-10-16T11:30:20;4.32;;;1.60;;
35606;SDS011;21729;58.392;15.656;2022-10-16T11:32:52;5.38;;;1.48;;
35606;SDS011;21729;58.392;15.656;2022-10-16T11:35:33;3.88;;;1.50;;
35606;SDS011;21729;58.392;15.656;2022-10-16T11:38:09;4.15;;;1.92;;
35606;SDS011;21729;58.392;15.656;2022-10-16T11:40:41;5.80;;;2.30;;
35606;SDS011;21729;58.392;15.656;2022-10-16T11:43:15;4.57;;;1.80;;
35606;SDS011;21729;58.392;15.656;2022-10-16T11:45:49;5.25;;;1.52;;
35606;SDS011;21729;58.392;15.656;2022-10-16T11:48:21;2.50;;;1.10;;
35606;SDS011;21729;58.392;15.656;2022-10-16T11:50:55;5.47;;;1.20;;
35606;SDS011;21729;58.392;15.656;2022-10-16T11:53:31;3.83;;;1.30;;
35606;SDS011;21729;58.392;15.656;2022-10-16T11:56:11;3.38;;;1.30;;
35606;SDS011;21729;58.392;15.656;2022-10-16T11:58:41;5.38;;;1.50;;
35606;SDS011;21729;58.392;15.656;2022-10-16T12:01:17;3.13;;;1.38;;
35606;SDS011;21729;58.392;15.656;2022-10-16T12:03:52;4.72;;;1.45;;
35606;SDS011;21729;58.392;15.656;2022-10-16T12:06:32;4.88;;;1.13;;
35606;SDS011;21729;58.392;15.656;2022-10-16T12:09:03;3.40;;;1.10;;
35606;SDS011;21729;58.392;15.656;2022-10-16T12:11:33;5.47;;;1.40;;
35606;SDS011;21729;58.392;15.656;2022-10-16T12:14:18;5.00;;;1.20;;
35606;SDS011;21729;58.392;15.656;2022-10-16T12:16:51;5.80;;;1.23;;
35606;SDS011;21729;58.392;15.656;2022-10-16T12:19:21;4.15;;;1.23;;
35606;SDS011;21729;58.392;15.656;2022-10-16T12:21:51;3.72;;;1.02;;
35606;SDS011;21729;58.392;15.656;2022-10-16T12:24:28;2.45;;;1.02;;
35606;SDS011;21729;58.392;15.656;2022-10-16T12:27:01;4.70;;;1.17;;
35606;SDS011;21729;58.392;15.656;2022-10-16T12:29:32;3.40;;;1.23;;
35606;SDS011;21729;58.392;15.656;2022-10-16T12:32:02;4.38;;;1.20;;
35606;SDS011;21729;58.392;15.656;2022-10-16T12:34:34;4.15;;;1.13;;
35606;SDS011;21729;58.392;15.656;2022-10-16T12:37:11;4.23;;;1.07;;
35606;SDS011;21729;58.392;15.656;2022-10-16T12:39:41;4.53;;;1.50;;
35606;SDS011;21729;58.392;15.656;2022-10-16T12:42:31;3.47;;;1.30;;
35606;SDS011;21729;58.392;15.656;2022-10-16T12:45:00;4.40;;;1.30;;
35606;SDS011;21729;58.392;15.656;2022-10-16T12:47:37;3.13;;;1.05;;
35606;SDS011;21729;58.392;15.656;2022-10-16T12:50:31;4.28;;;1.50;;
35606;SDS011;21729;58.392;15.656;2022-10-16T12:53:02;5.13;;;1.33;;
35606;SDS011;21729;58.392;15.656;2022-10-16T12:55:33;5.00;;;1.40;;
35606;SDS011;21729;58.392;15.656;2022-10-16T13:01:09;5.65;;;1.20;;
35606;SDS011;21729;58.392;15.656;2022-10-16T13:03:55;5.83;;;1.33;;
35606;SDS011;21729;58.392;15.656;2022-10-16T13:06:45;6.30;;;1.30;;
35606;SDS011;21729;58.392;15.656;2022-10-16T13:09:27;5.97;;;1.42;;
35606;SDS011;21729;58.392;15.656;2022-10-16T13:12:08;3.78;;;1.30;;
35606;SDS011;21729;58.392;15.656;2022-10-16T13:17:42;3.88;;;1.35;;
35606;SDS011;21729;58.392;15.656;2022-10-16T13:20:20;5.25;;;1.40;;
35606;SDS011;21729;58.392;15.656;2022-10-16T13:22:51;3.70;;;1.58;;
35606;SDS011;21729;58.392;15.656;2022-10-16T13:25:31;5.23;;;1.40;;
35606;SDS011;21729;58.392;15.656;2022-10-16T13:28:07;6.85;;;1.60;;
35606;SDS011;21729;58.392;15.656;2022-10-16T13:30:37;5.82;;;1.40;;
35606;SDS011;21729;58.392;15.656;2022-10-16T13:33:07;7.10;;;1.65;;
35606;SDS011;21729;58.392;15.656;2022-10-16T13:35:46;12.15;;;2.20;;
35606;SDS011;21729;58.392;15.656;2022-10-16T13:38:15;4.97;;;1.70;;
35606;SDS011;21729;58.392;15.656;2022-10-16T13:40:52;6.97;;;1.63;;
35606;SDS011;21729;58.392;15.656;2022-10-16T13:43:22;6.03;;;1.20;;
35606;SDS011;21729;58.392;15.656;2022-10-16T13:45:52;7.43;;;1.40;;
35606;SDS011;21729;58.392;15.656;2022-10-16T13:48:23;5.90;;;1.60;;
35606;SDS011;21729;58.392;15.656;2022-10-16T13:50:59;7.75;;;1.60;;
35606;SDS011;21729;58.392;15.656;2022-10-16T13:53:27;4.97;;;1.20;;
35606;SDS011;21729;58.392;15.656;2022-10-16T13:55:57;4.82;;;1.45;;
35606;SDS011;21729;58.392;15.656;2022-10-16T13:58:25;4.03;;;1.30;;
35606;SDS011;21729;58.392;15.656;2022-10-16T14:00:53;3.65;;;0.85;;
35606;SDS011;21729;58.392;15.656;2022-10-16T14:03:22;2.45;;;0.77;;
35606;SDS011;21729;58.392;15.656;2022-10-16T14:05:51;1.98;;;0.63;;
35606;SDS011;21729;58.392;15.656;2022-10-16T14:08:20;4.10;;;0.70;;
35606;SDS011;21729;58.392;15.656;2022-10-16T14:10:49;4.72;;;0.60;;
35606;SDS011;21729;58.392;15.656;2022-10-16T14:13:19;2.10;;;0.50;;
35606;SDS011;21729;58.392;15.656;2022-10-16T14:15:56;1.73;;;0.47;;
35606;SDS011;21729;58.392;15.656;2022-10-16T14:18:25;1.67;;;0.50;;
35606;SDS011;21729;58.392;15.656;2022-10-16T14:20:55;0.88;;;0.40;;
35606;SDS011;21729;58.392;15.656;2022-10-16T14:23:30;1.65;;;0.55;;
35606;SDS011;21729;58.392;15.656;2022-10-16T14:26:11;4.30;;;0.60;;
35606;SDS011;21729;58.392;15.656;2022-10-16T14:28:41;2.90;;;0.47;;
35606;SDS011;21729;58.392;15.656;2022-10-16T14:31:31;1.88;;;0.45;;
35606;SDS011;21729;58.392;15.656;2022-10-16T14:34:01;1.52;;;0.50;;
35606;SDS011;21729;58.392;15.656;2022-10-16T14:36:28;2.75;;;0.70;;
35606;SDS011;21729;58.392;15.656;2022-10-16T14:39:00;1.88;;;0.47;;
35606;SDS011;21729;58.392;15.656;2022-10-16T14:41:30;1.80;;;0.55;;
35606;SDS011;21729;58.392;15.656;2022-10-16T14:44:02;2.03;;;0.40;;
35606;SDS011;21729;58.392;15.656;2022-10-16T14:46:32;2.22;;;0.60;;
35606;SDS011;21729;58.392;15.656;2022-10-16T14:49:03;2.03;;;0.43;;
35606;SDS011;21729;58.392;15.656;2022-10-16T14:51:41;1.23;;;0.38;;
35606;SDS011;21729;58.392;15.656;2022-10-16T14:54:10;1.15;;;0.40;;
35606;SDS011;21729;58.392;15.656;2022-10-16T14:56:42;2.80;;;1.00;;
35606;SDS011;21729;58.392;15.656;2022-10-16T14:59:15;1.70;;;0.60;;
35606;SDS011;21729;58.392;15.656;2022-10-16T15:01:45;2.20;;;0.88;;
35606;SDS011;21729;58.392;15.656;2022-10-16T15:04:13;2.85;;;0.77;;